sensor_id;sensor_type;location;lat;lon;timestamp;temperature;humidity
64501;DHT22;50874;24.150;-110.320;2023-07-16T00:01:00;40.20;79.90
64501;DHT22;50874;24.150;-110.320;2023-07-16T00:03:27;40.20;80.40
64501;DHT22;50874;24.150;-110.320;2023-07-16T00:05:53;40.00;80.70
64501;DHT22;50874;24.150;-110.320;2023-07-16T00:08:20;39.90;81.10
64501;DHT22;50874;24.150;-110.320;2023-07-16T00:10:47;39.90;80.90
64501;DHT22;50874;24.150;-110.320;2023-07-16T00:13:13;40.00;81.20
64501;DHT22;50874;24.150;-110.320;2023-07-16T00:15:39;39.80;81.30
64501;DHT22;50874;24.150;-110.320;2023-07-16T00:18:06;39.60;81.90
64501;DHT22;50874;24.150;-110.320;2023-07-16T00:20:32;39.40;82.50
64501;DHT22;50874;24.150;-110.320;2023-07-16T00:22:59;39.30;83.00
64501;DHT22;50874;24.150;-110.320;2023-07-16T00:25:26;39.40;82.90
64501;DHT22;50874;24.150;-110.320;2023-07-16T00:27:52;39.40;83.00
64501;DHT22;50874;24.150;-110.320;2023-07-16T00:30:18;39.30;82.80
64501;DHT22;50874;24.150;-110.320;2023-07-16T00:32:45;39.20;83.30
64501;DHT22;50874;24.150;-110.320;2023-07-16T00:35:11;39.10;83.40
64501;DHT22;50874;24.150;-110.320;2023-07-16T00:37:38;38.90;83.50
64501;DHT22;50874;24.150;-110.320;2023-07-16T00:40:05;38.90;83.70
64501;DHT22;50874;24.150;-110.320;2023-07-16T00:42:31;38.80;84.30
64501;DHT22;50874;24.150;-110.320;2023-07-16T00:44:58;38.70;84.10
64501;DHT22;50874;24.150;-110.320;2023-07-16T00:47:25;38.80;84.50
64501;DHT22;50874;24.150;-110.320;2023-07-16T00:49:52;38.80;84.70
64501;DHT22;50874;24.150;-110.320;2023-07-16T00:52:21;38.80;84.90
64501;DHT22;50874;24.150;-110.320;2023-07-16T00:54:49;38.90;84.90
64501;DHT22;50874;24.150;-110.320;2023-07-16T00:57:16;38.90;84.80
64501;DHT22;50874;24.150;-110.320;2023-07-16T00:59:43;38.80;85.50
64501;DHT22;50874;24.150;-110.320;2023-07-16T01:02:09;38.80;85.80
64501;DHT22;50874;24.150;-110.320;2023-07-16T01:04:36;38.60;86.10
64501;DHT22;50874;24.150;-110.320;2023-07-16T01:07:08;38.60;86.20
64501;DHT22;50874;24.150;-110.320;2023-07-16T01:09:37;38.30;86.60
64501;DHT22;50874;24.150;-110.320;2023-07-16T01:12:05;38.10;87.80
64501;DHT22;50874;24.150;-110.320;2023-07-16T01:14:32;38.00;89.50
64501;DHT22;50874;24.150;-110.320;2023-07-16T01:17:01;38.00;89.80
64501;DHT22;50874;24.150;-110.320;2023-07-16T01:19:28;37.70;90.20
64501;DHT22;50874;24.150;-110.320;2023-07-16T01:22:10;37.60;90.30
64501;DHT22;50874;24.150;-110.320;2023-07-16T01:30:37;37.20;91.40
64501;DHT22;50874;24.150;-110.320;2023-07-16T01:33:05;37.00;92.00
64501;DHT22;50874;24.150;-110.320;2023-07-16T01:35:33;36.90;92.40
64501;DHT22;50874;24.150;-110.320;2023-07-16T01:38:01;36.80;92.40
64501;DHT22;50874;24.150;-110.320;2023-07-16T01:40:27;36.70;92.60
64501;DHT22;50874;24.150;-110.320;2023-07-16T01:42:56;36.50;93.00
64501;DHT22;50874;24.150;-110.320;2023-07-16T01:45:22;36.50;93.30
64501;DHT22;50874;24.150;-110.320;2023-07-16T01:50:31;36.50;93.40
64501;DHT22;50874;24.150;-110.320;2023-07-16T01:52:58;36.30;93.40
64501;DHT22;50874;24.150;-110.320;2023-07-16T01:55:24;36.20;93.60
64501;DHT22;50874;24.150;-110.320;2023-07-16T01:57:50;36.10;93.90
64501;DHT22;50874;24.150;-110.320;2023-07-16T02:00:17;36.00;94.10
64501;DHT22;50874;24.150;-110.320;2023-07-16T02:02:44;35.80;94.30
64501;DHT22;50874;24.150;-110.320;2023-07-16T02:05:10;35.70;94.60
64501;DHT22;50874;24.150;-110.320;2023-07-16T02:07:36;35.70;95.00
64501;DHT22;50874;24.150;-110.320;2023-07-16T02:10:03;35.50;95.20
64501;DHT22;50874;24.150;-110.320;2023-07-16T02:12:30;35.40;95.50
64501;DHT22;50874;24.150;-110.320;2023-07-16T02:14:56;35.30;95.80
64501;DHT22;50874;24.150;-110.320;2023-07-16T02:17:23;35.20;96.00
64501;DHT22;50874;24.150;-110.320;2023-07-16T02:19:49;35.10;96.20
64501;DHT22;50874;24.150;-110.320;2023-07-16T02:22:16;35.20;96.60
64501;DHT22;50874;24.150;-110.320;2023-07-16T02:24:42;35.10;97.20
64501;DHT22;50874;24.150;-110.320;2023-07-16T02:27:08;34.90;97.80
64501;DHT22;50874;24.150;-110.320;2023-07-16T02:29:35;34.70;98.20
64501;DHT22;50874;24.150;-110.320;2023-07-16T02:32:01;34.50;98.90
64501;DHT22;50874;24.150;-110.320;2023-07-16T02:34:28;34.40;99.30
64501;DHT22;50874;24.150;-110.320;2023-07-16T02:36:54;34.30;99.80
64501;DHT22;50874;24.150;-110.320;2023-07-16T02:39:21;34.20;99.90
64501;DHT22;50874;24.150;-110.320;2023-07-16T02:41:47;34.10;99.90
64501;DHT22;50874;24.150;-110.320;2023-07-16T02:44:13;34.00;99.90
64501;DHT22;50874;24.150;-110.320;2023-07-16T02:46:40;33.90;99.90
64501;DHT22;50874;24.150;-110.320;2023-07-16T02:49:07;33.80;99.90
64501;DHT22;50874;24.150;-110.320;2023-07-16T02:51:34;33.80;99.90
64501;DHT22;50874;24.150;-110.320;2023-07-16T02:54:00;33.70;99.90
64501;DHT22;50874;24.150;-110.320;2023-07-16T02:56:27;33.60;99.90
64501;DHT22;50874;24.150;-110.320;2023-07-16T02:58:53;33.50;99.90
64501;DHT22;50874;24.150;-110.320;2023-07-16T03:01:19;33.50;99.90
64501;DHT22;50874;24.150;-110.320;2023-07-16T03:03:46;33.50;99.90
64501;DHT22;50874;24.150;-110.320;2023-07-16T03:06:12;33.40;99.90
64501;DHT22;50874;24.150;-110.320;2023-07-16T03:08:39;33.20;99.90
64501;DHT22;50874;24.150;-110.320;2023-07-16T03:11:05;33.20;99.90
64501;DHT22;50874;24.150;-110.320;2023-07-16T03:13:32;33.20;99.90
64501;DHT22;50874;24.150;-110.320;2023-07-16T03:15:58;33.10;99.90
64501;DHT22;50874;24.150;-110.320;2023-07-16T03:18:29;33.00;99.90
64501;DHT22;50874;24.150;-110.320;2023-07-16T03:20:56;32.90;99.90
64501;DHT22;50874;24.150;-110.320;2023-07-16T03:23:23;32.70;99.90
64501;DHT22;50874;24.150;-110.320;2023-07-16T03:25:50;32.80;99.90
64501;DHT22;50874;24.150;-110.320;2023-07-16T03:28:17;32.70;99.90
64501;DHT22;50874;24.150;-110.320;2023-07-16T03:30:47;32.70;99.90
64501;DHT22;50874;24.150;-110.320;2023-07-16T03:33:14;32.70;99.90
64501;DHT22;50874;24.150;-110.320;2023-07-16T03:35:45;32.60;99.90
64501;DHT22;50874;24.150;-110.320;2023-07-16T03:38:13;32.60;99.90
64501;DHT22;50874;24.150;-110.320;2023-07-16T03:40:41;32.50;99.90
64501;DHT22;50874;24.150;-110.320;2023-07-16T03:43:08;32.40;99.90
64501;DHT22;50874;24.150;-110.320;2023-07-16T03:45:34;32.30;99.90
64501;DHT22;50874;24.150;-110.320;2023-07-16T03:48:01;32.20;99.90
64501;DHT22;50874;24.150;-110.320;2023-07-16T03:50:27;32.20;99.90
64501;DHT22;50874;24.150;-110.320;2023-07-16T03:52:53;32.20;99.90
64501;DHT22;50874;24.150;-110.320;2023-07-16T03:55:20;32.10;99.90
64501;DHT22;50874;24.150;-110.320;2023-07-16T03:57:47;31.90;99.90
64501;DHT22;50874;24.150;-110.320;2023-07-16T04:00:13;31.90;99.90
64501;DHT22;50874;24.150;-110.320;2023-07-16T04:02:40;31.80;99.90
64501;DHT22;50874;24.150;-110.320;2023-07-16T04:05:07;31.80;99.90
64501;DHT22;50874;24.150;-110.320;2023-07-16T04:07:33;31.80;99.90
64501;DHT22;50874;24.150;-110.320;2023-07-16T04:10:00;31.80;99.90
64501;DHT22;50874;24.150;-110.320;2023-07-16T04:12:26;31.80;99.90
64501;DHT22;50874;24.150;-110.320;2023-07-16T04:14:57;31.80;99.90
64501;DHT22;50874;24.150;-110.320;2023-07-16T04:17:24;31.80;99.90
64501;DHT22;50874;24.150;-110.320;2023-07-16T04:19:51;31.70;99.90
64501;DHT22;50874;24.150;-110.320;2023-07-16T04:22:18;31.80;99.90
64501;DHT22;50874;24.150;-110.320;2023-07-16T04:24:44;31.70;99.90
64501;DHT22;50874;24.150;-110.320;2023-07-16T04:27:11;31.70;99.90
64501;DHT22;50874;24.150;-110.320;2023-07-16T04:29:37;31.60;99.90
64501;DHT22;50874;24.150;-110.320;2023-07-16T04:32:04;31.50;99.90
64501;DHT22;50874;24.150;-110.320;2023-07-16T04:34:30;31.60;99.90
64501;DHT22;50874;24.150;-110.320;2023-07-16T04:36:57;31.60;99.90
64501;DHT22;50874;24.150;-110.320;2023-07-16T04:39:23;31.60;99.90
64501;DHT22;50874;24.150;-110.320;2023-07-16T04:41:49;31.50;99.90
64501;DHT22;50874;24.150;-110.320;2023-07-16T04:44:16;31.60;99.90
64501;DHT22;50874;24.150;-110.320;2023-07-16T04:46:42;31.50;99.90
64501;DHT22;50874;24.150;-110.320;2023-07-16T04:49:11;31.50;99.90
64501;DHT22;50874;24.150;-110.320;2023-07-16T04:51:38;31.40;99.90
64501;DHT22;50874;24.150;-110.320;2023-07-16T04:54:04;31.40;99.90
64501;DHT22;50874;24.150;-110.320;2023-07-16T04:56:31;31.40;99.90
64501;DHT22;50874;24.150;-110.320;2023-07-16T04:58:57;31.30;99.90
64501;DHT22;50874;24.150;-110.320;2023-07-16T05:01:23;31.30;99.90
64501;DHT22;50874;24.150;-110.320;2023-07-16T05:03:51;31.20;99.90
64501;DHT22;50874;24.150;-110.320;2023-07-16T05:06:17;31.30;99.90
64501;DHT22;50874;24.150;-110.320;2023-07-16T05:08:44;31.30;99.90
64501;DHT22;50874;24.150;-110.320;2023-07-16T05:11:11;31.20;99.90
64501;DHT22;50874;24.150;-110.320;2023-07-16T05:13:38;31.10;99.90
64501;DHT22;50874;24.150;-110.320;2023-07-16T05:16:04;31.10;99.90
64501;DHT22;50874;24.150;-110.320;2023-07-16T05:18:31;31.00;99.90
64501;DHT22;50874;24.150;-110.320;2023-07-16T05:20:57;31.00;99.90
64501;DHT22;50874;24.150;-110.320;2023-07-16T05:23:24;31.00;99.90
64501;DHT22;50874;24.150;-110.320;2023-07-16T05:25:50;31.00;99.90
64501;DHT22;50874;24.150;-110.320;2023-07-16T05:28:18;31.00;99.90
64501;DHT22;50874;24.150;-110.320;2023-07-16T05:30:45;30.90;99.90
64501;DHT22;50874;24.150;-110.320;2023-07-16T05:33:11;30.80;99.90
64501;DHT22;50874;24.150;-110.320;2023-07-16T05:35:39;30.80;99.90
64501;DHT22;50874;24.150;-110.320;2023-07-16T05:38:05;30.60;99.90
64501;DHT22;50874;24.150;-110.320;2023-07-16T05:40:32;30.70;99.90
64501;DHT22;50874;24.150;-110.320;2023-07-16T05:42:59;30.60;99.90
64501;DHT22;50874;24.150;-110.320;2023-07-16T05:45:25;30.50;99.90
64501;DHT22;50874;24.150;-110.320;2023-07-16T05:47:51;30.50;99.90
64501;DHT22;50874;24.150;-110.320;2023-07-16T05:50:18;30.50;99.90
64501;DHT22;50874;24.150;-110.320;2023-07-16T05:52:44;30.40;99.90
64501;DHT22;50874;24.150;-110.320;2023-07-16T05:55:13;30.30;99.90
64501;DHT22;50874;24.150;-110.320;2023-07-16T05:57:40;30.20;99.90
64501;DHT22;50874;24.150;-110.320;2023-07-16T06:00:07;30.10;99.90
64501;DHT22;50874;24.150;-110.320;2023-07-16T06:02:34;30.00;99.90
64501;DHT22;50874;24.150;-110.320;2023-07-16T06:05:01;29.90;99.90
64501;DHT22;50874;24.150;-110.320;2023-07-16T06:07:28;29.80;99.90
64501;DHT22;50874;24.150;-110.320;2023-07-16T06:09:54;29.80;99.90
64501;DHT22;50874;24.150;-110.320;2023-07-16T06:12:20;29.90;99.90
64501;DHT22;50874;24.150;-110.320;2023-07-16T06:14:47;29.90;99.90
64501;DHT22;50874;24.150;-110.320;2023-07-16T06:17:13;29.70;99.90
64501;DHT22;50874;24.150;-110.320;2023-07-16T06:19:40;29.70;99.90
64501;DHT22;50874;24.150;-110.320;2023-07-16T06:22:06;29.70;99.90
64501;DHT22;50874;24.150;-110.320;2023-07-16T06:24:35;29.60;99.90
64501;DHT22;50874;24.150;-110.320;2023-07-16T06:27:01;29.60;99.90
64501;DHT22;50874;24.150;-110.320;2023-07-16T06:29:28;29.50;99.90
64501;DHT22;50874;24.150;-110.320;2023-07-16T06:31:56;29.50;99.90
64501;DHT22;50874;24.150;-110.320;2023-07-16T06:34:23;29.60;99.90
64501;DHT22;50874;24.150;-110.320;2023-07-16T06:36:50;29.60;99.90
64501;DHT22;50874;24.150;-110.320;2023-07-16T06:39:16;29.60;99.90
64501;DHT22;50874;24.150;-110.320;2023-07-16T06:41:43;29.50;99.90
64501;DHT22;50874;24.150;-110.320;2023-07-16T06:44:09;29.40;99.90
64501;DHT22;50874;24.150;-110.320;2023-07-16T06:46:35;29.40;99.90
64501;DHT22;50874;24.150;-110.320;2023-07-16T06:49:02;29.40;99.90
64501;DHT22;50874;24.150;-110.320;2023-07-16T06:51:28;29.40;99.90
64501;DHT22;50874;24.150;-110.320;2023-07-16T06:53:57;29.50;99.90
64501;DHT22;50874;24.150;-110.320;2023-07-16T06:56:23;29.50;99.90
64501;DHT22;50874;24.150;-110.320;2023-07-16T06:58:50;29.50;99.90
64501;DHT22;50874;24.150;-110.320;2023-07-16T07:01:16;29.50;99.90
64501;DHT22;50874;24.150;-110.320;2023-07-16T07:03:43;29.50;99.90
64501;DHT22;50874;24.150;-110.320;2023-07-16T07:06:09;29.50;99.90
64501;DHT22;50874;24.150;-110.320;2023-07-16T07:08:38;29.50;99.90
64501;DHT22;50874;24.150;-110.320;2023-07-16T07:11:05;29.40;99.90
64501;DHT22;50874;24.150;-110.320;2023-07-16T07:13:31;29.30;99.90
64501;DHT22;50874;24.150;-110.320;2023-07-16T07:15:58;29.30;99.90
64501;DHT22;50874;24.150;-110.320;2023-07-16T07:18:24;29.20;99.90
64501;DHT22;50874;24.150;-110.320;2023-07-16T07:20:50;29.20;99.90
64501;DHT22;50874;24.150;-110.320;2023-07-16T07:23:17;29.30;99.90
64501;DHT22;50874;24.150;-110.320;2023-07-16T07:25:47;29.30;99.90
64501;DHT22;50874;24.150;-110.320;2023-07-16T07:28:14;29.20;99.90
64501;DHT22;50874;24.150;-110.320;2023-07-16T07:30:41;29.20;99.90
64501;DHT22;50874;24.150;-110.320;2023-07-16T07:33:07;29.10;99.90
64501;DHT22;50874;24.150;-110.320;2023-07-16T07:35:34;29.10;99.90
64501;DHT22;50874;24.150;-110.320;2023-07-16T07:38:00;29.10;99.90
64501;DHT22;50874;24.150;-110.320;2023-07-16T07:40:27;29.10;99.90
64501;DHT22;50874;24.150;-110.320;2023-07-16T07:42:53;29.00;99.90
64501;DHT22;50874;24.150;-110.320;2023-07-16T07:45:20;28.90;99.90
64501;DHT22;50874;24.150;-110.320;2023-07-16T07:47:46;28.90;99.90
64501;DHT22;50874;24.150;-110.320;2023-07-16T07:50:13;28.90;99.90
64501;DHT22;50874;24.150;-110.320;2023-07-16T07:52:39;28.90;99.90
64501;DHT22;50874;24.150;-110.320;2023-07-16T07:55:06;28.80;99.90
64501;DHT22;50874;24.150;-110.320;2023-07-16T07:57:32;28.80;99.90
64501;DHT22;50874;24.150;-110.320;2023-07-16T07:59:59;28.90;99.90
64501;DHT22;50874;24.150;-110.320;2023-07-16T08:02:26;28.90;99.90
64501;DHT22;50874;24.150;-110.320;2023-07-16T08:04:53;28.90;99.90
64501;DHT22;50874;24.150;-110.320;2023-07-16T08:07:21;28.90;99.90
64501;DHT22;50874;24.150;-110.320;2023-07-16T08:09:47;28.90;99.90
64501;DHT22;50874;24.150;-110.320;2023-07-16T08:12:14;29.00;99.90
64501;DHT22;50874;24.150;-110.320;2023-07-16T08:14:41;29.00;99.90
64501;DHT22;50874;24.150;-110.320;2023-07-16T08:17:07;28.90;99.90
64501;DHT22;50874;24.150;-110.320;2023-07-16T08:19:34;28.80;99.90
64501;DHT22;50874;24.150;-110.320;2023-07-16T08:22:01;28.80;99.90
64501;DHT22;50874;24.150;-110.320;2023-07-16T08:24:27;28.80;99.90
64501;DHT22;50874;24.150;-110.320;2023-07-16T08:26:54;28.80;99.90
64501;DHT22;50874;24.150;-110.320;2023-07-16T08:29:20;28.80;99.90
64501;DHT22;50874;24.150;-110.320;2023-07-16T08:31:46;28.80;99.90
64501;DHT22;50874;24.150;-110.320;2023-07-16T08:34:13;28.70;99.90
64501;DHT22;50874;24.150;-110.320;2023-07-16T08:36:39;28.60;99.90
64501;DHT22;50874;24.150;-110.320;2023-07-16T08:39:06;28.60;99.90
64501;DHT22;50874;24.150;-110.320;2023-07-16T08:41:33;28.50;99.90
64501;DHT22;50874;24.150;-110.320;2023-07-16T08:44:00;28.50;99.90
64501;DHT22;50874;24.150;-110.320;2023-07-16T08:46:27;28.50;99.90
64501;DHT22;50874;24.150;-110.320;2023-07-16T08:48:54;28.40;99.90
64501;DHT22;50874;24.150;-110.320;2023-07-16T08:51:21;28.40;99.90
64501;DHT22;50874;24.150;-110.320;2023-07-16T08:53:48;28.40;99.90
64501;DHT22;50874;24.150;-110.320;2023-07-16T08:56:15;28.30;99.90
64501;DHT22;50874;24.150;-110.320;2023-07-16T08:58:43;28.20;99.90
64501;DHT22;50874;24.150;-110.320;2023-07-16T09:01:11;28.20;99.90
64501;DHT22;50874;24.150;-110.320;2023-07-16T09:03:38;28.20;99.90
64501;DHT22;50874;24.150;-110.320;2023-07-16T09:06:05;28.20;99.90
64501;DHT22;50874;24.150;-110.320;2023-07-16T09:08:31;28.20;99.90
64501;DHT22;50874;24.150;-110.320;2023-07-16T09:10:58;28.10;99.90
64501;DHT22;50874;24.150;-110.320;2023-07-16T09:13:25;28.00;99.90
64501;DHT22;50874;24.150;-110.320;2023-07-16T09:15:58;27.90;99.90
64501;DHT22;50874;24.150;-110.320;2023-07-16T09:18:26;27.90;99.90
64501;DHT22;50874;24.150;-110.320;2023-07-16T09:20:59;27.90;99.90
64501;DHT22;50874;24.150;-110.320;2023-07-16T09:23:30;27.90;99.90
64501;DHT22;50874;24.150;-110.320;2023-07-16T09:25:57;27.80;99.90
64501;DHT22;50874;24.150;-110.320;2023-07-16T09:28:24;27.70;99.90
64501;DHT22;50874;24.150;-110.320;2023-07-16T09:30:52;27.70;99.90
64501;DHT22;50874;24.150;-110.320;2023-07-16T09:33:20;27.60;99.90
64501;DHT22;50874;24.150;-110.320;2023-07-16T09:35:49;27.60;99.90
64501;DHT22;50874;24.150;-110.320;2023-07-16T09:38:16;27.60;99.90
64501;DHT22;50874;24.150;-110.320;2023-07-16T09:40:43;27.60;99.90
64501;DHT22;50874;24.150;-110.320;2023-07-16T09:43:11;27.60;99.90
64501;DHT22;50874;24.150;-110.320;2023-07-16T09:45:38;27.60;99.90
64501;DHT22;50874;24.150;-110.320;2023-07-16T09:48:05;27.60;99.90
64501;DHT22;50874;24.150;-110.320;2023-07-16T09:50:36;27.60;99.90
64501;DHT22;50874;24.150;-110.320;2023-07-16T09:53:06;27.50;99.90
64501;DHT22;50874;24.150;-110.320;2023-07-16T09:55:34;27.40;99.90
64501;DHT22;50874;24.150;-110.320;2023-07-16T09:58:03;27.40;99.90
64501;DHT22;50874;24.150;-110.320;2023-07-16T10:00:33;27.30;99.90
64501;DHT22;50874;24.150;-110.320;2023-07-16T10:03:00;27.30;99.90
64501;DHT22;50874;24.150;-110.320;2023-07-16T10:05:27;27.20;99.90
64501;DHT22;50874;24.150;-110.320;2023-07-16T10:07:59;27.20;99.90
64501;DHT22;50874;24.150;-110.320;2023-07-16T10:10:53;27.10;99.90
64501;DHT22;50874;24.150;-110.320;2023-07-16T10:13:23;27.00;99.90
64501;DHT22;50874;24.150;-110.320;2023-07-16T10:15:54;27.00;99.90
64501;DHT22;50874;24.150;-110.320;2023-07-16T10:18:31;27.00;99.90
64501;DHT22;50874;24.150;-110.320;2023-07-16T10:21:06;27.00;99.90
64501;DHT22;50874;24.150;-110.320;2023-07-16T10:23:43;27.00;99.90
64501;DHT22;50874;24.150;-110.320;2023-07-16T10:26:13;27.00;99.90
64501;DHT22;50874;24.150;-110.320;2023-07-16T10:28:41;27.00;99.90
64501;DHT22;50874;24.150;-110.320;2023-07-16T10:31:17;27.00;99.90
64501;DHT22;50874;24.150;-110.320;2023-07-16T10:33:44;26.90;99.90
64501;DHT22;50874;24.150;-110.320;2023-07-16T10:36:10;26.90;99.90
64501;DHT22;50874;24.150;-110.320;2023-07-16T10:38:44;26.90;99.90
64501;DHT22;50874;24.150;-110.320;2023-07-16T10:41:10;26.80;99.90
64501;DHT22;50874;24.150;-110.320;2023-07-16T10:43:37;26.90;99.90
64501;DHT22;50874;24.150;-110.320;2023-07-16T10:46:03;26.90;99.90
64501;DHT22;50874;24.150;-110.320;2023-07-16T10:48:30;26.90;99.90
64501;DHT22;50874;24.150;-110.320;2023-07-16T10:50:56;26.90;99.90
64501;DHT22;50874;24.150;-110.320;2023-07-16T10:53:23;26.80;99.90
64501;DHT22;50874;24.150;-110.320;2023-07-16T10:55:49;26.80;99.90
64501;DHT22;50874;24.150;-110.320;2023-07-16T10:58:16;26.90;99.90
64501;DHT22;50874;24.150;-110.320;2023-07-16T11:00:43;26.80;99.90
64501;DHT22;50874;24.150;-110.320;2023-07-16T11:03:10;26.80;99.90
64501;DHT22;50874;24.150;-110.320;2023-07-16T11:05:40;26.80;99.90
64501;DHT22;50874;24.150;-110.320;2023-07-16T11:08:07;26.70;99.90
64501;DHT22;50874;24.150;-110.320;2023-07-16T11:10:33;26.70;99.90
64501;DHT22;50874;24.150;-110.320;2023-07-16T11:12:59;26.70;99.90
64501;DHT22;50874;24.150;-110.320;2023-07-16T11:15:33;26.70;99.90
64501;DHT22;50874;24.150;-110.320;2023-07-16T11:18:01;26.70;99.90
64501;DHT22;50874;24.150;-110.320;2023-07-16T11:20:29;26.80;99.90
64501;DHT22;50874;24.150;-110.320;2023-07-16T11:22:58;26.70;99.90
64501;DHT22;50874;24.150;-110.320;2023-07-16T11:25:29;26.70;99.90
64501;DHT22;50874;24.150;-110.320;2023-07-16T11:27:57;26.60;99.90
64501;DHT22;50874;24.150;-110.320;2023-07-16T11:30:24;26.60;99.90
64501;DHT22;50874;24.150;-110.320;2023-07-16T11:32:51;26.60;99.90
64501;DHT22;50874;24.150;-110.320;2023-07-16T11:35:18;26.60;99.90
64501;DHT22;50874;24.150;-110.320;2023-07-16T11:37:46;26.60;99.90
64501;DHT22;50874;24.150;-110.320;2023-07-16T11:40:17;26.60;99.90
64501;DHT22;50874;24.150;-110.320;2023-07-16T11:42:45;26.60;99.90
64501;DHT22;50874;24.150;-110.320;2023-07-16T11:45:19;26.60;99.90
64501;DHT22;50874;24.150;-110.320;2023-07-16T11:47:46;26.60;99.90
64501;DHT22;50874;24.150;-110.320;2023-07-16T11:50:13;26.60;99.90
64501;DHT22;50874;24.150;-110.320;2023-07-16T11:52:40;26.50;99.90
64501;DHT22;50874;24.150;-110.320;2023-07-16T11:55:07;26.50;99.90
64501;DHT22;50874;24.150;-110.320;2023-07-16T11:57:34;26.50;99.90
64501;DHT22;50874;24.150;-110.320;2023-07-16T12:00:02;26.60;99.90
64501;DHT22;50874;24.150;-110.320;2023-07-16T12:02:29;26.50;99.90
64501;DHT22;50874;24.150;-110.320;2023-07-16T12:04:56;26.50;99.90
64501;DHT22;50874;24.150;-110.320;2023-07-16T12:09:59;26.60;99.90
64501;DHT22;50874;24.150;-110.320;2023-07-16T12:12:25;26.60;99.90
64501;DHT22;50874;24.150;-110.320;2023-07-16T12:14:52;26.60;99.90
64501;DHT22;50874;24.150;-110.320;2023-07-16T12:17:18;26.60;99.90
64501;DHT22;50874;24.150;-110.320;2023-07-16T12:19:44;26.60;99.90
64501;DHT22;50874;24.150;-110.320;2023-07-16T12:22:11;26.60;99.90
64501;DHT22;50874;24.150;-110.320;2023-07-16T12:24:38;26.60;99.90
64501;DHT22;50874;24.150;-110.320;2023-07-16T12:27:04;26.60;99.90
64501;DHT22;50874;24.150;-110.320;2023-07-16T12:29:31;26.60;99.90
64501;DHT22;50874;24.150;-110.320;2023-07-16T12:31:58;26.70;99.90
64501;DHT22;50874;24.150;-110.320;2023-07-16T12:34:26;26.70;99.90
64501;DHT22;50874;24.150;-110.320;2023-07-16T12:36:52;26.80;99.90
64501;DHT22;50874;24.150;-110.320;2023-07-16T12:39:20;26.80;99.90
64501;DHT22;50874;24.150;-110.320;2023-07-16T12:41:46;26.90;99.90
64501;DHT22;50874;24.150;-110.320;2023-07-16T12:44:13;26.90;99.90
64501;DHT22;50874;24.150;-110.320;2023-07-16T12:46:39;26.90;99.90
64501;DHT22;50874;24.150;-110.320;2023-07-16T12:49:05;27.00;99.90
64501;DHT22;50874;24.150;-110.320;2023-07-16T12:51:32;27.00;99.90
64501;DHT22;50874;24.150;-110.320;2023-07-16T12:53:58;27.00;99.90
64501;DHT22;50874;24.150;-110.320;2023-07-16T12:56:27;27.00;99.90
64501;DHT22;50874;24.150;-110.320;2023-07-16T12:58:53;27.00;99.90
64501;DHT22;50874;24.150;-110.320;2023-07-16T13:01:20;27.00;99.90
64501;DHT22;50874;24.150;-110.320;2023-07-16T13:03:46;27.00;99.90
64501;DHT22;50874;24.150;-110.320;2023-07-16T13:06:13;27.00;99.90
64501;DHT22;50874;24.150;-110.320;2023-07-16T13:08:39;27.00;99.90
64501;DHT22;50874;24.150;-110.320;2023-07-16T13:11:05;27.10;99.90
64501;DHT22;50874;24.150;-110.320;2023-07-16T13:13:32;27.10;99.90
64501;DHT22;50874;24.150;-110.320;2023-07-16T13:15:58;27.10;99.90
64501;DHT22;50874;24.150;-110.320;2023-07-16T13:18:25;27.20;99.90
64501;DHT22;50874;24.150;-110.320;2023-07-16T13:20:51;27.20;99.90
64501;DHT22;50874;24.150;-110.320;2023-07-16T13:23:18;27.20;99.90
64501;DHT22;50874;24.150;-110.320;2023-07-16T13:25:44;27.30;99.90
64501;DHT22;50874;24.150;-110.320;2023-07-16T13:28:10;27.40;99.90
64501;DHT22;50874;24.150;-110.320;2023-07-16T13:30:37;27.40;99.90
64501;DHT22;50874;24.150;-110.320;2023-07-16T13:33:04;27.50;99.90
64501;DHT22;50874;24.150;-110.320;2023-07-16T13:35:30;27.60;99.90
64501;DHT22;50874;24.150;-110.320;2023-07-16T13:37:57;27.60;99.90
64501;DHT22;50874;24.150;-110.320;2023-07-16T13:40:23;27.70;99.90
64501;DHT22;50874;24.150;-110.320;2023-07-16T13:42:50;27.90;99.90
64501;DHT22;50874;24.150;-110.320;2023-07-16T13:45:16;27.90;99.90
64501;DHT22;50874;24.150;-110.320;2023-07-16T13:47:43;28.00;99.90
64501;DHT22;50874;24.150;-110.320;2023-07-16T13:50:09;28.00;99.90
64501;DHT22;50874;24.150;-110.320;2023-07-16T13:52:36;28.10;99.90
64501;DHT22;50874;24.150;-110.320;2023-07-16T13:55:04;28.10;99.90
64501;DHT22;50874;24.150;-110.320;2023-07-16T13:57:30;28.10;99.90
64501;DHT22;50874;24.150;-110.320;2023-07-16T13:59:57;28.20;99.90
64501;DHT22;50874;24.150;-110.320;2023-07-16T14:02:23;28.30;99.90
64501;DHT22;50874;24.150;-110.320;2023-07-16T14:04:49;28.30;99.90
64501;DHT22;50874;24.150;-110.320;2023-07-16T14:07:16;28.40;99.90
64501;DHT22;50874;24.150;-110.320;2023-07-16T14:09:42;28.50;99.90
64501;DHT22;50874;24.150;-110.320;2023-07-16T14:12:09;28.60;99.90
64501;DHT22;50874;24.150;-110.320;2023-07-16T14:14:35;28.80;99.90
64501;DHT22;50874;24.150;-110.320;2023-07-16T14:17:02;28.90;99.90
64501;DHT22;50874;24.150;-110.320;2023-07-16T14:19:29;29.00;99.90
64501;DHT22;50874;24.150;-110.320;2023-07-16T14:21:56;29.10;99.90
64501;DHT22;50874;24.150;-110.320;2023-07-16T14:24:22;29.00;99.90
64501;DHT22;50874;24.150;-110.320;2023-07-16T14:26:49;29.20;99.90
64501;DHT22;50874;24.150;-110.320;2023-07-16T14:29:15;29.20;99.90
64501;DHT22;50874;24.150;-110.320;2023-07-16T14:31:41;29.20;99.90
64501;DHT22;50874;24.150;-110.320;2023-07-16T14:34:08;29.30;99.90
64501;DHT22;50874;24.150;-110.320;2023-07-16T14:36:35;29.40;99.90
64501;DHT22;50874;24.150;-110.320;2023-07-16T14:39:01;29.50;99.90
64501;DHT22;50874;24.150;-110.320;2023-07-16T14:41:27;29.60;99.90
64501;DHT22;50874;24.150;-110.320;2023-07-16T14:43:54;29.60;99.90
64501;DHT22;50874;24.150;-110.320;2023-07-16T14:46:20;29.60;99.90
64501;DHT22;50874;24.150;-110.320;2023-07-16T14:48:47;29.60;99.90
64501;DHT22;50874;24.150;-110.320;2023-07-16T14:51:13;29.60;99.90
64501;DHT22;50874;24.150;-110.320;2023-07-16T14:53:40;29.70;99.90
64501;DHT22;50874;24.150;-110.320;2023-07-16T14:56:06;29.80;99.90
64501;DHT22;50874;24.150;-110.320;2023-07-16T14:58:33;29.90;99.90